Time;durP1;ratioP1;P1;durP2;ratioP2;P2;SDS_P1;SDS_P2;PMS_P1;PMS_P2;Temp;Humidity;BMP_temperature;BMP_pressure;BME280_temperature;BME280_humidity;BME280_pressure;Samples;Min_cycle;Max_cycle;Signal;HPM_P1;HPM_P2
2022/06/04 00:00:35;;;;;;;10.13;6.90;;;;;;;20.14;67.32;100509.72;4074173;29;20051;-66
2022/06/04 00:02:38;;;;;;;5.80;5.05;;;;;;;20.10;67.51;100513.31;4082891;29;20074;-66
2022/06/04 00:04:42;;;;;;;8.30;5.25;;;;;;;20.11;67.59;100515.06;4083057;29;20487;-66
2022/06/04 00:06:45;;;;;;;7.18;5.90;;;;;;;20.10;67.75;100518.59;4077630;29;20040;-66
2022/06/04 00:08:50;;;;;;;8.68;6.68;;;;;;;20.15;67.32;100527.28;4081468;29;20036;-65
2022/06/04 00:15:38;;;;;;;9.40;6.57;;;;;;;20.03;68.02;100512.63;4074796;29;20064;-66
2022/06/04 00:17:41;;;;;;;7.78;5.93;;;;;;;20.01;68.35;100518.84;4083447;29;20043;-66
2022/06/04 00:19:44;;;;;;;8.43;6.30;;;;;;;19.99;68.53;100525.91;4083037;29;20055;-66
2022/06/04 00:21:48;;;;;;;8.10;6.13;;;;;;;19.97;68.80;100533.00;4082834;29;20171;-66
2022/06/04 00:23:51;;;;;;;8.40;7.15;;;;;;;19.91;68.74;100534.00;4076494;29;20039;-66
2022/06/04 00:25:58;;;;;;;8.82;6.45;;;;;;;19.90;68.79;100539.31;4081507;29;20047;-66
2022/06/04 00:28:01;;;;;;;8.63;5.90;;;;;;;19.85;69.20;100544.72;4082735;29;20050;-66
2022/06/04 00:30:08;;;;;;;7.90;6.45;;;;;;;19.83;69.36;100543.84;4080997;29;20107;-66
2022/06/04 00:32:12;;;;;;;8.43;6.18;;;;;;;19.83;69.00;100546.50;4082494;29;20434;-66
2022/06/04 00:34:15;;;;;;;12.50;7.50;;;;;;;19.82;69.26;100534.22;4074456;29;20411;-66
2022/06/04 00:36:18;;;;;;;10.83;6.47;;;;;;;19.87;68.84;100532.34;4082456;29;20306;-66
2022/06/04 00:38:24;;;;;;;9.00;7.60;;;;;;;19.85;69.24;100535.00;4081944;29;20055;-66
2022/06/04 00:40:33;;;;;;;8.52;6.57;;;;;;;19.86;68.98;100528.84;4082078;29;20050;-66
2022/06/04 00:42:36;;;;;;;7.20;6.47;;;;;;;19.83;69.14;100528.91;4076551;29;20044;-67
2022/06/04 00:45:12;;;;;;;8.68;7.78;;;;;;;19.83;69.05;100515.72;4081528;29;20043;-67
2022/06/04 00:47:24;;;;;;;8.65;6.53;;;;;;;19.81;69.00;100525.44;4083072;29;20051;-67
2022/06/04 00:49:27;;;;;;;8.20;6.18;;;;;;;19.78;69.26;100529.88;4088901;29;20050;-67
2022/06/04 00:51:39;;;;;;;9.95;7.35;;;;;;;19.82;68.95;100531.59;4081415;29;20103;-67
2022/06/04 00:53:42;;;;;;;8.52;6.65;;;;;;;19.83;69.13;100526.28;4077908;29;20043;-67
2022/06/04 00:55:52;;;;;;;9.90;6.60;;;;;;;19.86;69.34;100535.91;4097198;29;20035;-68
2022/06/04 00:58:15;;;;;;;7.40;6.60;;;;;;;19.83;69.17;100536.84;4076700;29;20046;-67
2022/06/04 01:00:22;;;;;;;7.25;6.32;;;;;;;19.78;69.64;100543.97;4077717;29;20052;-67
2022/06/04 01:02:38;;;;;;;7.18;5.80;;;;;;;19.74;69.79;100542.25;4082608;29;20313;-67
2022/06/04 01:04:51;;;;;;;7.60;6.72;;;;;;;19.72;69.89;100541.44;4070162;29;20052;-67
2022/06/04 01:07:02;;;;;;;8.40;7.05;;;;;;;19.65;70.26;100543.34;4080789;29;20053;-67
2022/06/04 01:09:37;;;;;;;10.55;7.93;;;;;;;19.65;69.66;100547.75;4082272;29;20403;-67
2022/06/04 01:12:12;;;;;;;8.60;5.57;;;;;;;19.60;69.75;100554.91;4080346;29;20036;-67
2022/06/04 01:14:41;;;;;;;9.68;6.18;;;;;;;19.58;69.80;100551.41;4081053;29;20051;-67
2022/06/04 01:16:56;;;;;;;9.90;6.68;;;;;;;19.58;69.60;100551.41;4075304;29;20057;-67
2022/06/04 01:19:18;;;;;;;9.38;5.72;;;;;;;19.56;69.91;100547.97;4081631;29;20607;-67
2022/06/04 01:21:29;;;;;;;10.45;5.72;;;;;;;19.52;70.25;100548.03;4080548;29;20055;-67
2022/06/04 01:24:13;;;;;;;8.45;6.53;;;;;;;19.44;70.37;100549.94;4082369;29;20130;-67
2022/06/04 01:26:59;;;;;;;6.70;5.95;;;;;;;19.43;70.61;100547.34;4067619;29;20056;-67
2022/06/04 01:29:08;;;;;;;5.93;5.32;;;;;;;19.37;70.68;100548.34;4034239;29;20063;-67
2022/06/04 01:31:16;;;;;;;7.97;5.68;;;;;;;19.36;70.40;100552.75;4084804;29;20070;-67
2022/06/04 01:33:24;;;;;;;8.27;7.18;;;;;;;19.38;70.38;100550.09;4079996;29;20080;-67
2022/06/04 01:35:32;;;;;;;8.85;7.88;;;;;;;19.40;70.75;100553.53;4084939;29;20475;-67
2022/06/04 01:37:39;;;;;;;10.40;9.40;;;;;;;19.44;70.37;100559.63;4078638;29;20091;-67
2022/06/04 01:42:09;;;;;;;15.10;13.70;;;;;;;19.62;70.36;100548.69;4066304;29;20445;-67
2022/06/04 01:44:19;;;;;;;13.15;11.48;;;;;;;19.61;69.87;100548.72;4085762;29;20519;-66
2022/06/04 01:46:26;;;;;;;14.85;12.27;;;;;;;19.63;69.90;100536.38;4081900;29;20522;-67
2022/06/04 01:48:32;;;;;;;14.73;13.20;;;;;;;19.65;70.15;100537.19;4084984;29;20047;-66
2022/06/04 01:50:41;;;;;;;15.55;12.68;;;;;;;19.67;70.07;100533.63;4068069;29;20403;-66
2022/06/04 01:52:44;;;;;;;13.85;11.25;;;;;;;19.66;69.78;100537.16;4084006;29;20470;-66
2022/06/04 01:54:51;;;;;;;11.43;9.52;;;;;;;19.67;69.69;100536.28;4083016;29;20430;-66
2022/06/04 01:56:58;;;;;;;10.27;9.18;;;;;;;19.65;70.13;100534.56;4081733;29;20224;-66
2022/06/04 01:59:09;;;;;;;12.38;8.82;;;;;;;19.66;69.53;100536.31;4085094;29;20074;-66
2022/06/04 02:01:17;;;;;;;10.70;7.00;;;;;;;19.63;69.95;100545.16;4084899;29;20055;-66
2022/06/04 02:03:27;;;;;;;11.13;9.10;;;;;;;19.62;69.87;100545.19;4084745;29;20047;-66
2022/06/04 02:05:35;;;;;;;7.50;6.70;;;;;;;19.59;70.18;100542.63;4083192;29;20044;-66
2022/06/04 02:07:43;;;;;;;9.63;7.13;;;;;;;19.52;70.24;100548.03;4092674;29;20046;-67
2022/06/04 02:09:50;;;;;;;9.70;8.25;;;;;;;19.51;70.14;100538.38;4081636;29;20054;-66
2022/06/04 02:11:55;;;;;;;8.88;7.00;;;;;;;19.48;70.49;100540.22;4095733;29;20412;-67
2022/06/04 02:14:05;;;;;;;9.25;7.93;;;;;;;19.46;70.29;100534.94;4099479;29;20094;-67
2022/06/04 02:16:11;;;;;;;13.02;8.70;;;;;;;19.42;70.54;100527.16;4099785;28;20130;-67
2022/06/04 02:18:15;;;;;;;10.98;9.80;;;;;;;19.41;70.86;100528.94;4083851;29;20047;-66
2022/06/04 02:20:18;;;;;;;13.18;11.88;;;;;;;19.34;70.53;100530.81;4083931;29;20071;-67
2022/06/04 02:22:21;;;;;;;13.00;11.63;;;;;;;19.28;71.11;100528.31;4083352;29;20055;-67
2022/06/04 02:24:24;;;;;;;18.33;12.80;;;;;;;19.33;71.06;100529.09;4085444;29;20345;-66
2022/06/04 02:26:28;;;;;;;12.45;11.07;;;;;;;19.36;70.87;100528.16;4083029;29;20061;-67
2022/06/04 02:28:31;;;;;;;12.75;10.77;;;;;;;19.34;70.74;100528.19;4077392;29;20074;-66
2022/06/04 02:30:44;;;;;;;12.80;10.77;;;;;;;19.37;71.16;100524.63;4082463;29;20130;-67
2022/06/04 02:33:00;;;;;;;11.55;9.43;;;;;;;19.34;70.61;100529.97;4083015;29;20070;-66
2022/06/04 02:35:10;;;;;;;10.80;9.70;;;;;;;19.27;70.96;100541.53;4083409;29;20035;-67
2022/06/04 02:37:20;;;;;;;11.70;9.15;;;;;;;19.21;71.55;100531.13;4077411;29;20114;-67
2022/06/04 02:39:30;;;;;;;11.98;9.98;;;;;;;19.17;71.66;100536.44;4076080;29;20055;-67
2022/06/04 02:41:38;;;;;;;13.80;11.32;;;;;;;19.16;71.30;100534.72;4084312;29;20066;-66
2022/06/04 02:43:44;;;;;;;13.30;11.90;;;;;;;19.13;71.57;100534.78;4083962;29;20143;-66
2022/06/04 02:45:53;;;;;;;14.90;11.13;;;;;;;19.11;71.72;100530.41;4083218;29;20101;-67
2022/06/04 02:48:00;;;;;;;17.00;12.18;;;;;;;19.09;71.27;100527.81;4081410;29;20040;-67
2022/06/04 02:50:13;;;;;;;17.60;11.10;;;;;;;19.08;71.95;100518.16;4082004;29;20095;-67
2022/06/04 02:52:19;;;;;;;12.05;10.38;;;;;;;19.07;71.88;100524.38;4085023;29;20036;-66
2022/06/04 02:54:26;;;;;;;11.30;9.98;;;;;;;19.06;71.82;100527.03;4082236;29;20067;-67
2022/06/04 02:56:33;;;;;;;12.85;11.07;;;;;;;19.05;72.08;100522.66;4082516;29;20043;-67
2022/06/04 02:58:39;;;;;;;16.00;13.27;;;;;;;19.08;71.80;100520.81;4076621;29;20423;-67
2022/06/04 03:00:43;;;;;;;14.68;13.07;;;;;;;19.04;71.86;100519.16;4082359;29;20055;-67
2022/06/04 03:02:47;;;;;;;13.95;12.52;;;;;;;18.96;72.00;100515.78;4083999;29;20412;-67
2022/06/04 03:04:53;;;;;;;13.93;11.65;;;;;;;18.95;72.25;100525.47;4083750;29;20123;-67
2022/06/04 03:07:06;;;;;;;12.25;10.88;;;;;;;18.93;72.25;100510.59;4077432;29;20040;-67
2022/06/04 03:09:12;;;;;;;11.77;10.57;;;;;;;18.91;72.48;100507.09;4059117;29;20052;-67
2022/06/04 03:11:15;;;;;;;11.93;10.73;;;;;;;18.85;72.39;100510.69;4082886;29;20422;-67
2022/06/04 03:13:18;;;;;;;11.25;9.43;;;;;;;18.81;72.86;100514.28;4082671;29;20495;-66
2022/06/04 03:15:22;;;;;;;10.90;9.80;;;;;;;18.75;72.76;100507.38;4083652;29;20044;-66
2022/06/04 03:17:25;;;;;;;12.18;9.30;;;;;;;18.75;73.09;100498.59;4083256;29;20503;-67
2022/06/04 03:19:28;;;;;;;13.18;10.43;;;;;;;18.75;72.86;100496.84;4077142;29;20047;-67
2022/06/04 03:21:31;;;;;;;12.43;10.27;;;;;;;18.77;73.04;100499.44;4080993;29;20040;-66
2022/06/04 03:23:35;;;;;;;15.48;10.50;;;;;;;18.80;72.93;100492.34;4076900;29;20039;-66
2022/06/04 03:25:39;;;;;;;12.52;11.23;;;;;;;18.79;72.15;100493.25;4083455;29;20048;-66
2022/06/04 03:27:42;;;;;;;12.95;11.65;;;;;;;18.75;72.79;100501.22;4080799;29;20050;-66
2022/06/04 03:29:46;;;;;;;13.38;11.82;;;;;;;18.75;72.51;100507.38;4077393;29;20435;-67
2022/06/04 03:31:49;;;;;;;11.35;10.07;;;;;;;18.77;72.74;100508.19;4083337;29;20038;-67
2022/06/04 03:33:51;;;;;;;12.27;11.00;;;;;;;18.72;73.12;100507.44;4083444;29;20051;-67
2022/06/04 03:35:54;;;;;;;12.50;11.20;;;;;;;18.71;72.83;100516.22;4082839;29;20123;-67
2022/06/04 03:37:57;;;;;;;13.65;11.82;;;;;;;18.71;72.99;100520.63;4083301;29;20036;-67
2022/06/04 03:40:02;;;;;;;12.70;11.50;;;;;;;18.71;73.12;100525.91;4082285;29;20134;-67
2022/06/04 03:42:06;;;;;;;12.70;10.55;;;;;;;18.66;73.35;100528.59;4079750;29;20040;-67
2022/06/04 03:44:09;;;;;;;12.82;11.52;;;;;;;18.64;72.96;100535.66;4079393;29;20444;-67
2022/06/04 03:46:12;;;;;;;15.25;12.63;;;;;;;18.58;73.39;100541.06;4081339;29;20046;-67
2022/06/04 03:48:15;;;;;;;14.50;11.43;;;;;;;18.54;74.24;100549.88;4082473;29;20047;-68
2022/06/04 03:50:18;;;;;;;13.90;11.23;;;;;;;18.49;74.13;100558.72;4062553;29;20056;-68
2022/06/04 03:52:21;;;;;;;13.95;11.57;;;;;;;18.48;74.35;100567.50;4076584;29;20052;-67
2022/06/04 03:56:42;;;;;;;13.50;12.02;;;;;;;18.52;74.23;100565.72;4076195;29;21693;-68
2022/06/04 03:58:45;;;;;;;11.88;10.43;;;;;;;18.52;74.29;100578.88;4084085;29;20111;-67
2022/06/04 04:00:48;;;;;;;15.57;11.38;;;;;;;18.56;74.26;100575.31;4083442;29;20043;-67
2022/06/04 04:02:54;;;;;;;13.23;11.88;;;;;;;18.60;74.18;100576.09;4082630;29;20067;-67
2022/06/04 04:04:57;;;;;;;14.05;12.55;;;;;;;18.62;73.99;100576.97;4082060;29;20048;-68
2022/06/04 04:07:00;;;;;;;15.55;11.80;;;;;;;18.66;73.56;100583.88;4073121;29;20110;-67
2022/06/04 04:09:04;;;;;;;12.85;11.55;;;;;;;18.67;73.36;100580.38;4078423;29;20047;-67
2022/06/04 04:11:11;;;;;;;12.98;11.07;;;;;;;18.71;73.23;100586.47;4080818;29;20044;-67
2022/06/04 04:13:17;;;;;;;14.32;11.75;;;;;;;18.70;73.43;100588.22;4081668;29;20048;-67
2022/06/04 04:15:21;;;;;;;12.38;9.60;;;;;;;18.72;73.37;100582.91;4083794;29;20043;-67
2022/06/04 04:17:24;;;;;;;14.85;10.38;;;;;;;18.71;73.33;100579.44;4078230;29;20559;-67
2022/06/04 04:19:30;;;;;;;12.85;11.55;;;;;;;18.76;73.20;100581.97;4082735;29;20119;-69
2022/06/04 04:21:40;;;;;;;12.38;9.93;;;;;;;18.68;72.90;100579.50;4082975;29;20491;-67
2022/06/04 04:23:44;;;;;;;11.82;9.07;;;;;;;18.63;72.90;100586.59;4076973;29;20028;-69
2022/06/04 04:25:47;;;;;;;11.40;9.82;;;;;;;18.63;72.56;100579.56;4081488;29;20410;-67
2022/06/04 04:27:51;;;;;;;11.20;10.02;;;;;;;18.66;72.60;100587.41;4066631;29;20048;-67
2022/06/04 04:29:55;;;;;;;10.27;8.88;;;;;;;18.72;72.74;100591.72;4082427;29;20087;-66
2022/06/04 04:31:58;;;;;;;11.23;9.30;;;;;;;18.74;72.16;100592.53;4075411;29;20040;-66
2022/06/04 04:34:01;;;;;;;10.80;9.55;;;;;;;18.74;72.42;100589.91;4081414;29;20091;-68
2022/06/04 04:36:05;;;;;;;9.43;8.07;;;;;;;18.80;72.03;100592.44;4082408;29;20403;-66
2022/06/04 04:38:07;;;;;;;12.30;8.90;;;;;;;18.82;72.47;100595.91;4079472;29;20075;-67
2022/06/04 04:40:11;;;;;;;10.25;9.18;;;;;;;18.87;72.09;100600.28;4082380;29;20320;-68
2022/06/04 04:42:14;;;;;;;10.45;8.18;;;;;;;18.86;71.54;100599.38;4080585;29;20545;-69
2022/06/04 04:44:17;;;;;;;9.98;8.68;;;;;;;18.92;71.40;100601.91;4080368;29;20075;-68
2022/06/04 04:46:22;;;;;;;10.00;8.05;;;;;;;18.97;71.26;100601.84;4077995;29;20040;-69
2022/06/04 04:48:24;;;;;;;;;;;;;;;18.84;71.57;100606.44;4083303;29;20044;-68
2022/06/04 04:50:31;;;;;;;9.65;7.50;;;;;;;18.95;70.91;100609.78;4082346;29;19929;-68
2022/06/04 04:52:34;;;;;;;10.52;7.50;;;;;;;19.05;70.47;100599.06;4082243;29;20046;-68
2022/06/04 04:54:37;;;;;;;10.43;9.30;;;;;;;19.27;69.45;100595.09;4078726;29;20399;-68
2022/06/04 04:56:40;;;;;;;8.75;7.78;;;;;;;19.25;69.52;100606.59;4076300;29;20051;-69
2022/06/04 04:58:44;;;;;;;10.30;7.95;;;;;;;19.26;70.06;100613.59;4082506;29;20058;-68
2022/06/04 05:00:47;;;;;;;11.73;8.13;;;;;;;19.23;70.14;100611.00;4058191;29;20143;-68
2022/06/04 05:02:51;;;;;;;8.93;8.02;;;;;;;19.26;69.56;100613.59;4101300;29;20043;-68
2022/06/04 05:04:54;;;;;;;11.63;9.48;;;;;;;19.36;69.03;100608.13;4082842;29;20564;-68
2022/06/04 05:06:57;;;;;;;11.60;8.50;;;;;;;19.44;69.13;100613.22;4084255;29;20055;-68
2022/06/04 05:09:00;;;;;;;17.55;11.70;;;;;;;19.52;68.75;100616.59;4084289;29;20050;-69
2022/06/04 05:11:07;;;;;;;10.25;9.18;;;;;;;19.56;68.89;100619.16;4084596;29;20415;-70
2022/06/04 05:13:10;;;;;;;11.95;10.73;;;;;;;19.65;68.79;100614.53;4085015;29;20590;-69
2022/06/04 05:15:13;;;;;;;13.15;11.85;;;;;;;19.82;68.07;100622.16;4080876;29;20047;-69
2022/06/04 05:17:16;;;;;;;14.85;9.75;;;;;;;19.85;67.83;100624.72;4082794;29;20138;-70
2022/06/04 05:19:25;;;;;;;16.50;14.43;;;;;;;20.06;68.03;100630.41;4083199;29;20587;-70
2022/06/04 05:21:37;;;;;;;16.60;14.80;;;;;;;20.10;67.65;100625.97;4081090;29;20043;-71
2022/06/04 05:23:40;;;;;;;18.58;16.02;;;;;;;20.23;67.72;100622.13;4086151;29;20036;-70
2022/06/04 05:25:44;;;;;;;19.13;16.08;;;;;;;20.12;68.02;100621.50;4085226;29;20359;-74
2022/06/04 05:27:47;;;;;;;17.00;15.20;;;;;;;20.13;68.26;100625.88;4100190;29;20138;-75
2022/06/04 05:29:50;;;;;;;17.45;15.65;;;;;;;20.11;68.63;100620.63;4086486;29;20478;-75
2022/06/04 05:31:53;;;;;;;21.00;16.20;;;;;;;20.27;67.90;100625.56;4084843;29;20060;-71
2022/06/04 05:33:57;;;;;;;20.27;17.07;;;;;;;20.25;67.90;100620.31;4079644;29;20071;-69
2022/06/04 05:36:02;;;;;;;18.45;16.20;;;;;;;20.18;67.66;100631.91;4082323;29;20395;-70
2022/06/04 05:38:05;;;;;;;17.52;15.80;;;;;;;20.12;68.52;100624.13;4089764;29;20052;-70
2022/06/04 05:40:09;;;;;;;16.92;15.30;;;;;;;20.14;68.03;100635.53;4082870;29;20043;-71
2022/06/04 05:42:12;;;;;;;20.25;17.65;;;;;;;20.17;68.25;100640.75;4083521;29;20523;-72
2022/06/04 05:44:15;;;;;;;18.67;14.20;;;;;;;20.13;68.07;100639.06;4085583;29;20031;-73
2022/06/04 05:46:19;;;;;;;11.98;10.63;;;;;;;20.08;68.52;100646.22;4079381;29;20047;-74
2022/06/04 05:48:23;;;;;;;13.98;11.80;;;;;;;20.15;68.50;100647.81;4082644;29;20048;-74
2022/06/04 05:50:25;;;;;;;15.32;13.65;;;;;;;20.25;68.41;100654.63;4078270;29;20150;-73
2022/06/04 05:52:30;;;;;;;17.27;15.55;;;;;;;20.43;67.28;100649.81;4084823;29;20139;-74
2022/06/04 05:54:33;;;;;;;16.85;15.15;;;;;;;20.34;67.17;100650.91;4086366;29;20031;-73
2022/06/04 05:56:39;;;;;;;17.00;15.27;;;;;;;20.36;67.47;100657.03;4077727;29;20043;-69
2022/06/04 05:58:42;;;;;;;18.17;16.27;;;;;;;20.40;67.01;100651.66;4092473;29;20527;-70
2022/06/04 06:00:45;;;;;;;17.67;15.18;;;;;;;20.38;66.96;100647.28;4082817;29;20050;-72
2022/06/04 06:02:48;;;;;;;23.88;16.65;;;;;;;20.31;67.31;100643.94;4083799;29;20139;-72
2022/06/04 06:04:55;;;;;;;18.25;16.30;;;;;;;20.32;67.40;100644.81;4084725;29;20055;-72
2022/06/04 06:07:00;;;;;;;15.48;13.38;;;;;;;20.19;67.56;100641.56;4084524;29;20047;-73
2022/06/04 06:09:06;;;;;;;16.67;13.93;;;;;;;20.20;67.75;100644.19;4080770;29;20468;-74
2022/06/04 06:11:12;;;;;;;16.88;14.80;;;;;;;20.21;68.09;100651.19;4079165;29;20051;-74
2022/06/04 06:13:15;;;;;;;17.77;14.45;;;;;;;20.27;67.69;100649.31;4077819;29;20075;-71
2022/06/04 06:15:18;;;;;;;15.38;12.82;;;;;;;20.23;67.97;100653.81;4082969;29;20047;-71
2022/06/04 06:17:21;;;;;;;15.48;12.80;;;;;;;20.23;68.29;100657.31;4083394;29;20126;-69
2022/06/04 06:19:24;;;;;;;12.90;11.45;;;;;;;20.25;68.52;100667.81;4082486;29;20051;-68
2022/06/04 06:21:30;;;;;;;14.00;10.73;;;;;;;20.24;68.92;100663.47;4084323;29;20051;-67
2022/06/04 06:23:33;;;;;;;11.57;9.82;;;;;;;20.26;68.65;100659.00;4085353;29;20500;-68
2022/06/04 06:25:37;;;;;;;12.18;10.75;;;;;;;20.31;69.12;100665.06;4078694;29;20040;-68
2022/06/04 06:27:40;;;;;;;12.25;11.05;;;;;;;20.32;69.23;100663.28;4079605;29;20082;-68
2022/06/04 06:29:44;;;;;;;13.45;12.15;;;;;;;20.35;68.53;100661.44;4078147;29;20047;-68
2022/06/04 06:31:47;;;;;;;14.55;12.13;;;;;;;20.38;68.77;100665.78;4081599;29;20035;-66
2022/06/04 06:33:51;;;;;;;11.38;9.00;;;;;;;20.48;68.43;100671.72;4079173;29;20118;-70
2022/06/04 06:35:57;;;;;;;12.05;10.15;;;;;;;20.50;68.75;100680.47;4083714;29;20036;-73
2022/06/04 06:38:00;;;;;;;12.82;10.23;;;;;;;20.52;68.63;100682.19;4082594;29;20136;-69
2022/06/04 06:40:04;;;;;;;13.27;10.68;;;;;;;20.55;68.50;100683.88;4072101;29;20568;-70
2022/06/04 06:42:08;;;;;;;12.70;11.40;;;;;;;20.56;68.66;100681.22;4083179;29;20078;-70
2022/06/04 06:44:25;;;;;;;12.25;11.00;;;;;;;20.57;68.50;100685.59;4068292;29;20040;-71
2022/06/04 06:46:32;;;;;;;13.02;11.70;;;;;;;20.65;68.34;100688.03;4075728;29;20040;-71
2022/06/04 06:48:36;;;;;;;10.07;8.63;;;;;;;20.71;68.68;100685.28;4083736;29;20050;-71
2022/06/04 06:50:40;;;;;;;9.98;8.93;;;;;;;20.77;68.81;100686.91;4078582;29;20131;-72
2022/06/04 06:52:42;;;;;;;11.55;9.07;;;;;;;20.81;68.75;100678.00;4080249;29;20056;-71
2022/06/04 06:54:46;;;;;;;11.63;10.40;;;;;;;20.86;68.69;100677.88;4096945;28;20040;-70
2022/06/04 06:56:51;;;;;;;12.60;11.05;;;;;;;20.85;68.60;100686.72;4074657;29;20050;-69
2022/06/04 06:58:57;;;;;;;16.13;14.27;;;;;;;20.80;68.35;100691.25;4080505;29;20055;-69
2022/06/04 07:00:59;;;;;;;14.43;12.93;;;;;;;20.86;67.93;100694.59;4080834;29;20471;-70
2022/06/04 07:03:02;;;;;;;14.13;12.63;;;;;;;20.99;67.72;100695.16;4082522;29;20407;-74
2022/06/04 07:05:06;;;;;;;13.82;10.80;;;;;;;20.99;67.73;100695.16;4080379;29;20038;-75
2022/06/04 07:07:09;;;;;;;16.77;14.98;;;;;;;21.02;67.78;100699.50;4076682;29;20393;-73
2022/06/04 07:09:16;;;;;;;14.88;12.32;;;;;;;21.01;67.67;100698.66;4083013;29;20035;-68
2022/06/04 07:11:18;;;;;;;16.20;13.90;;;;;;;21.05;67.68;100699.44;4081926;29;20054;-71
2022/06/04 07:13:23;;;;;;;16.35;14.75;;;;;;;20.98;67.45;100695.19;4080682;29;20099;-70
2022/06/04 07:15:27;;;;;;;17.52;15.73;;;;;;;21.01;67.34;100692.47;4082481;29;20043;-71
2022/06/04 07:17:30;;;;;;;16.40;14.43;;;;;;;21.02;67.27;100697.72;4078419;29;20495;-65
2022/06/04 07:19:33;;;;;;;16.42;14.68;;;;;;;21.01;67.16;100693.38;4078054;29;20043;-66
2022/06/04 07:21:36;;;;;;;16.27;14.70;;;;;;;20.93;67.50;100690.03;4083069;29;20175;-66
2022/06/04 07:23:39;;;;;;;16.63;15.00;;;;;;;21.00;67.19;100690.78;4083422;29;20575;-66
2022/06/04 07:25:44;;;;;;;15.52;13.52;;;;;;;21.02;67.44;100691.59;4082725;29;20542;-66
2022/06/04 07:27:47;;;;;;;14.75;13.20;;;;;;;21.02;67.44;100696.88;4082990;29;20054;-66
2022/06/04 07:29:57;;;;;;;20.35;18.25;;;;;;;21.14;67.08;100682.47;4080032;29;20043;-65
2022/06/04 07:32:01;;;;;;;18.95;14.40;;;;;;;21.12;67.20;100685.16;4081973;29;20495;-68
2022/06/04 07:34:05;;;;;;;18.02;15.07;;;;;;;21.11;66.96;100678.13;4075392;29;20051;-74
2022/06/04 07:36:08;;;;;;;20.13;18.23;;;;;;;21.05;67.03;100676.50;4081343;29;20047;-68
2022/06/04 07:38:11;;;;;;;18.92;16.88;;;;;;;21.04;67.20;100671.25;4077732;29;20063;-68
2022/06/04 07:40:14;;;;;;;20.98;18.95;;;;;;;21.13;67.11;100671.03;4077845;29;20052;-65
2022/06/04 07:42:17;;;;;;;18.00;16.00;;;;;;;21.16;67.27;100675.34;4075993;29;20048;-66
2022/06/04 07:44:23;;;;;;;18.92;17.10;;;;;;;21.22;67.08;100669.91;4079177;29;20503;-66
2022/06/04 07:46:29;;;;;;;22.55;20.33;;;;;;;21.35;66.82;100662.50;4060289;29;20131;-66
2022/06/04 07:48:33;;;;;;;25.15;22.33;;;;;;;21.49;66.50;100663.00;4076749;29;20056;-66
2022/06/04 07:50:38;;;;;;;22.55;20.02;;;;;;;21.42;66.67;100656.13;4075148;29;20543;-67
2022/06/04 07:52:41;;;;;;;24.10;21.65;;;;;;;21.45;66.59;100656.94;4064328;29;20039;-66
2022/06/04 07:54:44;;;;;;;22.15;19.95;;;;;;;21.39;66.59;100662.41;4093982;29;20083;-67
2022/06/04 07:56:47;;;;;;;19.17;17.17;;;;;;;21.34;66.98;100671.38;4097588;29;20043;-67
2022/06/04 07:58:54;;;;;;;18.95;16.95;;;;;;;21.38;66.38;100675.66;4083183;29;20048;-68
2022/06/04 08:00:57;;;;;;;27.58;22.05;;;;;;;21.52;66.37;100677.94;4082451;29;20047;-67
2022/06/04 08:03:00;;;;;;;22.02;19.73;;;;;;;21.58;66.57;100677.78;4082168;29;20075;-67
2022/06/04 08:05:10;;;;;;;23.02;20.48;;;;;;;21.72;66.02;100688.84;4083121;29;20128;-67
2022/06/04 08:07:13;;;;;;;25.17;22.30;;;;;;;21.76;65.81;100682.56;4081188;29;20114;-67
2022/06/04 08:09:19;;;;;;;21.73;19.60;;;;;;;21.88;65.83;100686.63;4078986;29;20070;-67
2022/06/04 08:11:32;;;;;;;24.50;22.08;;;;;;;21.99;65.02;100690.72;4080634;29;20046;-68
2022/06/04 08:13:35;;;;;;;18.60;16.55;;;;;;;21.92;64.65;100687.41;4073762;29;20495;-67
2022/06/04 08:15:38;;;;;;;20.83;17.85;;;;;;;21.81;65.04;100687.72;4081076;29;20035;-68
2022/06/04 08:17:47;;;;;;;;;;;;;;;21.62;65.50;100690.00;4060388;29;20060;-67
2022/06/04 08:19:50;;;;;;;18.35;16.55;;;;;;;21.74;64.72;100692.31;4094868;28;19926;-68
2022/06/04 08:22:02;;;;;;;19.25;17.35;;;;;;;21.75;64.89;100691.41;4079834;29;20059;-68
2022/06/04 08:24:08;;;;;;;22.63;19.63;;;;;;;21.99;63.23;100694.25;4079971;29;20066;-69
2022/06/04 08:26:12;;;;;;;22.40;20.08;;;;;;;21.99;63.38;100696.03;4079563;29;20031;-68
2022/06/04 08:28:16;;;;;;;20.33;17.13;;;;;;;21.88;63.37;100688.41;4079971;29;20051;-68
2022/06/04 08:30:21;;;;;;;16.35;13.82;;;;;;;21.81;64.30;100692.16;4080531;29;20111;-68
2022/06/04 08:32:24;;;;;;;21.75;18.08;;;;;;;21.97;64.00;100694.28;4079977;29;20046;-67
2022/06/04 08:34:27;;;;;;;21.60;19.30;;;;;;;22.04;63.57;100686.19;4063432;29;20058;-68
2022/06/04 08:36:30;;;;;;;19.65;17.73;;;;;;;22.00;63.84;100700.41;4063256;29;20201;-68
2022/06/04 08:38:35;;;;;;;15.48;13.75;;;;;;;21.91;64.28;100694.47;4078268;29;20074;-68
2022/06/04 08:40:40;;;;;;;20.55;16.20;;;;;;;21.88;64.32;100699.84;4079625;29;20529;-68
2022/06/04 08:43:06;;;;;;;18.23;16.48;;;;;;;21.97;64.65;100696.06;4078341;29;20043;-69
2022/06/04 08:45:12;;;;;;;18.35;14.50;;;;;;;21.99;64.72;100698.66;4073031;29;20043;-67
2022/06/04 08:47:19;;;;;;;15.27;13.68;;;;;;;22.05;65.23;100698.47;4076900;29;20058;-68
2022/06/04 08:49:29;;;;;;;19.20;16.00;;;;;;;22.12;64.61;100694.75;4076536;29;20636;-66
2022/06/04 08:51:33;;;;;;;17.23;13.93;;;;;;;22.07;64.71;100701.97;4093787;28;20138;-68
2022/06/04 08:53:37;;;;;;;16.23;11.70;;;;;;;22.07;65.14;100699.31;4076743;29;20046;-67
2022/06/04 08:58:20;;;;;;;17.92;15.95;;;;;;;22.06;63.17;100709.03;4074916;29;20495;-67
2022/06/04 09:00:37;;;;;;;14.93;13.43;;;;;;;22.04;63.43;100724.09;4075152;29;20087;-67
2022/06/04 09:02:52;;;;;;;14.30;12.80;;;;;;;22.01;64.22;100718.03;4077413;29;20039;-70
2022/06/04 09:05:03;;;;;;;13.85;9.98;;;;;;;22.04;65.16;100728.53;4081500;29;20047;-71
2022/06/04 09:07:11;;;;;;;11.50;9.18;;;;;;;22.05;65.53;100725.84;4076640;29;20059;-68
2022/06/04 09:09:21;;;;;;;11.10;8.63;;;;;;;22.06;66.00;100724.06;4079228;29;20469;-69
2022/06/04 09:11:28;;;;;;;10.40;8.75;;;;;;;22.07;66.22;100728.44;4075902;29;20068;-68
2022/06/04 09:13:37;;;;;;;12.30;10.45;;;;;;;22.05;66.28;100740.84;4069189;29;20059;-66
2022/06/04 09:15:45;;;;;;;12.32;9.73;;;;;;;22.06;66.48;100746.09;4077963;29;20091;-68
2022/06/04 09:17:51;;;;;;;10.77;8.50;;;;;;;22.02;66.52;100743.59;4074767;29;20044;-67
2022/06/04 09:19:58;;;;;;;12.48;10.45;;;;;;;22.00;66.28;100740.97;4074958;29;20051;-66
2022/06/04 09:22:01;;;;;;;18.98;13.85;;;;;;;21.95;66.34;100741.13;4079122;29;20071;-66
2022/06/04 09:24:05;;;;;;;18.67;12.70;;;;;;;21.95;66.24;100741.13;4078578;29;20494;-67
2022/06/04 09:26:24;;;;;;;10.93;9.27;;;;;;;21.99;66.46;100741.03;4079069;29;20047;-67
2022/06/04 09:28:39;;;;;;;13.73;9.90;;;;;;;22.01;66.41;100742.72;4069969;29;20055;-67
2022/06/04 09:30:48;;;;;;;13.63;10.55;;;;;;;22.04;66.50;100733.84;4076079;29;20044;-67
2022/06/04 09:33:04;;;;;;;11.57;10.35;;;;;;;22.09;66.52;100745.16;4079630;29;20039;-69
2022/06/04 09:35:07;;;;;;;12.57;10.65;;;;;;;22.07;66.52;100741.69;4080154;29;20138;-71
2022/06/04 09:37:11;;;;;;;11.55;10.27;;;;;;;22.07;66.68;100739.91;4081747;29;20440;-70
2022/06/04 09:39:23;;;;;;;13.85;11.18;;;;;;;22.08;66.47;100746.06;4081163;29;20043;-73
2022/06/04 09:41:33;;;;;;;13.77;11.88;;;;;;;22.07;66.20;100739.91;4080403;29;20051;-72
2022/06/04 09:43:36;;;;;;;11.60;9.73;;;;;;;22.09;66.26;100740.72;4074134;29;20572;-74
2022/06/04 09:45:42;;;;;;;10.98;8.73;;;;;;;22.15;66.33;100744.97;4080007;29;20103;-72
2022/06/04 09:47:48;;;;;;;11.80;8.85;;;;;;;22.17;66.46;100737.84;4080604;29;20039;-72
2022/06/04 09:49:55;;;;;;;11.45;8.75;;;;;;;22.19;66.36;100736.00;4098444;28;20098;-72